sensor_id;sensor_type;location;lat;lon;timestamp;temperature;humidity
75471;HTU21D;64051;46.320;48.028;2023-02-11T00:01:33;-11.49;73.06
75471;HTU21D;64051;46.320;48.028;2023-02-11T00:04:00;-11.53;73.09
75471;HTU21D;64051;46.320;48.028;2023-02-11T00:06:28;-11.60;73.23
75471;HTU21D;64051;46.320;48.028;2023-02-11T00:08:55;-11.65;73.12
75471;HTU21D;64051;46.320;48.028;2023-02-11T00:11:22;-11.69;73.07
75471;HTU21D;64051;46.320;48.028;2023-02-11T00:13:50;-11.75;72.99
75471;HTU21D;64051;46.320;48.028;2023-02-11T00:16:19;-11.79;72.99
75471;HTU21D;64051;46.320;48.028;2023-02-11T00:18:45;-11.83;73.31
75471;HTU21D;64051;46.320;48.028;2023-02-11T00:21:16;-11.86;73.17
75471;HTU21D;64051;46.320;48.028;2023-02-11T00:23:43;-11.89;73.16
75471;HTU21D;64051;46.320;48.028;2023-02-11T00:26:33;-11.92;73.07
75471;HTU21D;64051;46.320;48.028;2023-02-11T00:29:00;-11.92;73.32
75471;HTU21D;64051;46.320;48.028;2023-02-11T00:31:27;-11.94;73.25
75471;HTU21D;64051;46.320;48.028;2023-02-11T00:33:53;-11.97;73.25
75471;HTU21D;64051;46.320;48.028;2023-02-11T00:36:24;-11.97;73.09
75471;HTU21D;64051;46.320;48.028;2023-02-11T00:38:51;-11.99;73.05
75471;HTU21D;64051;46.320;48.028;2023-02-11T00:41:18;-12.01;73.39
75471;HTU21D;64051;46.320;48.028;2023-02-11T00:43:44;-12.03;73.12
75471;HTU21D;64051;46.320;48.028;2023-02-11T00:46:11;-12.07;72.99
75471;HTU21D;64051;46.320;48.028;2023-02-11T00:48:37;-12.09;72.67
75471;HTU21D;64051;46.320;48.028;2023-02-11T00:51:03;-12.10;72.96
75471;HTU21D;64051;46.320;48.028;2023-02-11T00:53:33;-12.12;72.98
75471;HTU21D;64051;46.320;48.028;2023-02-11T00:56:00;-12.18;72.90
75471;HTU21D;64051;46.320;48.028;2023-02-11T00:58:26;-12.21;73.06
75471;HTU21D;64051;46.320;48.028;2023-02-11T01:00:54;-12.26;73.40
75471;HTU21D;64051;46.320;48.028;2023-02-11T01:03:20;-12.29;72.77
75471;HTU21D;64051;46.320;48.028;2023-02-11T01:05:47;-12.36;73.12
75471;HTU21D;64051;46.320;48.028;2023-02-11T01:08:13;-12.43;73.57
75471;HTU21D;64051;46.320;48.028;2023-02-11T01:10:39;-12.49;72.76
75471;HTU21D;64051;46.320;48.028;2023-02-11T01:13:05;-12.59;72.62
75471;HTU21D;64051;46.320;48.028;2023-02-11T01:15:32;-12.71;72.65
75471;HTU21D;64051;46.320;48.028;2023-02-11T01:17:58;-12.81;72.31
75471;HTU21D;64051;46.320;48.028;2023-02-11T01:20:25;-12.94;72.13
75471;HTU21D;64051;46.320;48.028;2023-02-11T01:22:51;-13.04;72.08
75471;HTU21D;64051;46.320;48.028;2023-02-11T01:25:17;-13.16;72.23
75471;HTU21D;64051;46.320;48.028;2023-02-11T01:27:43;-13.27;72.14
75471;HTU21D;64051;46.320;48.028;2023-02-11T01:30:13;-13.39;72.34
75471;HTU21D;64051;46.320;48.028;2023-02-11T01:32:39;-13.49;72.47
75471;HTU21D;64051;46.320;48.028;2023-02-11T01:35:05;-13.57;72.50
75471;HTU21D;64051;46.320;48.028;2023-02-11T01:37:34;-13.63;72.60
75471;HTU21D;64051;46.320;48.028;2023-02-11T01:40:02;-13.69;72.62
75471;HTU21D;64051;46.320;48.028;2023-02-11T01:42:28;-13.74;72.93
75471;HTU21D;64051;46.320;48.028;2023-02-11T01:44:56;-13.76;72.96
75471;HTU21D;64051;46.320;48.028;2023-02-11T01:47:22;-13.80;72.54
75471;HTU21D;64051;46.320;48.028;2023-02-11T01:49:55;-13.84;72.32
75471;HTU21D;64051;46.320;48.028;2023-02-11T01:54:56;-13.92;72.85
75471;HTU21D;64051;46.320;48.028;2023-02-11T01:57:45;-13.98;72.58
75471;HTU21D;64051;46.320;48.028;2023-02-11T02:00:36;-14.01;72.46
75471;HTU21D;64051;46.320;48.028;2023-02-11T02:03:13;-14.03;72.35
75471;HTU21D;64051;46.320;48.028;2023-02-11T02:06:07;-14.06;72.22
75471;HTU21D;64051;46.320;48.028;2023-02-11T02:08:40;-14.11;72.75
75471;HTU21D;64051;46.320;48.028;2023-02-11T02:11:08;-14.15;72.67
75471;HTU21D;64051;46.320;48.028;2023-02-11T02:13:36;-14.19;72.57
75471;HTU21D;64051;46.320;48.028;2023-02-11T02:16:13;-14.20;72.27
75471;HTU21D;64051;46.320;48.028;2023-02-11T02:29:52;-14.20;72.57
75471;HTU21D;64051;46.320;48.028;2023-02-11T02:32:44;-14.20;72.36
75471;HTU21D;64051;46.320;48.028;2023-02-11T02:35:41;-14.22;72.60
75471;HTU21D;64051;46.320;48.028;2023-02-11T02:38:33;-14.22;73.12
75471;HTU21D;64051;46.320;48.028;2023-02-11T02:41:10;-14.21;72.29
75471;HTU21D;64051;46.320;48.028;2023-02-11T02:43:43;-14.22;72.41
75471;HTU21D;64051;46.320;48.028;2023-02-11T02:46:32;-14.22;72.72
75471;HTU21D;64051;46.320;48.028;2023-02-11T02:48:59;-14.25;72.67
75471;HTU21D;64051;46.320;48.028;2023-02-11T02:56:47;-14.29;72.64
75471;HTU21D;64051;46.320;48.028;2023-02-11T03:04:45;-14.35;72.61
75471;HTU21D;64051;46.320;48.028;2023-02-11T03:07:18;-14.35;72.60
75471;HTU21D;64051;46.320;48.028;2023-02-11T03:09:59;-14.37;72.54
75471;HTU21D;64051;46.320;48.028;2023-02-11T03:12:29;-14.37;72.38
75471;HTU21D;64051;46.320;48.028;2023-02-11T03:14:55;-14.39;72.67
75471;HTU21D;64051;46.320;48.028;2023-02-11T03:17:23;-14.39;72.59
75471;HTU21D;64051;46.320;48.028;2023-02-11T03:19:50;-14.39;72.54
75471;HTU21D;64051;46.320;48.028;2023-02-11T03:22:21;-14.39;72.41
75471;HTU21D;64051;46.320;48.028;2023-02-11T03:24:49;-14.37;72.62
75471;HTU21D;64051;46.320;48.028;2023-02-11T03:30:15;-14.43;72.45
75471;HTU21D;64051;46.320;48.028;2023-02-11T03:32:51;-14.45;72.41
75471;HTU21D;64051;46.320;48.028;2023-02-11T03:35:31;-14.46;72.51
75471;HTU21D;64051;46.320;48.028;2023-02-11T03:38:13;-14.47;72.15
75471;HTU21D;64051;46.320;48.028;2023-02-11T03:40:41;-14.49;72.38
75471;HTU21D;64051;46.320;48.028;2023-02-11T03:43:09;-14.49;72.38
75471;HTU21D;64051;46.320;48.028;2023-02-11T03:45:37;-14.50;72.40
75471;HTU21D;64051;46.320;48.028;2023-02-11T03:48:10;-14.51;72.12
75471;HTU21D;64051;46.320;48.028;2023-02-11T03:50:38;-14.52;72.16
75471;HTU21D;64051;46.320;48.028;2023-02-11T03:53:05;-14.51;72.58
75471;HTU21D;64051;46.320;48.028;2023-02-11T03:55:35;-14.49;72.25
75471;HTU21D;64051;46.320;48.028;2023-02-11T03:58:05;-14.47;72.43
75471;HTU21D;64051;46.320;48.028;2023-02-11T04:00:34;-14.47;72.43
75471;HTU21D;64051;46.320;48.028;2023-02-11T04:03:02;-14.46;72.71
75471;HTU21D;64051;46.320;48.028;2023-02-11T04:05:28;-14.45;72.42
75471;HTU21D;64051;46.320;48.028;2023-02-11T04:07:53;-14.45;72.15
75471;HTU21D;64051;46.320;48.028;2023-02-11T04:10:20;-14.42;72.35
75471;HTU21D;64051;46.320;48.028;2023-02-11T04:12:45;-14.40;72.80
75471;HTU21D;64051;46.320;48.028;2023-02-11T04:15:17;-14.37;72.65
75471;HTU21D;64051;46.320;48.028;2023-02-11T04:17:44;-14.36;72.48
75471;HTU21D;64051;46.320;48.028;2023-02-11T04:20:10;-14.33;72.66
75471;HTU21D;64051;46.320;48.028;2023-02-11T04:22:36;-14.31;72.94
75471;HTU21D;64051;46.320;48.028;2023-02-11T04:25:04;-14.27;72.73
75471;HTU21D;64051;46.320;48.028;2023-02-11T04:27:30;-14.22;72.76
75471;HTU21D;64051;46.320;48.028;2023-02-11T04:29:56;-14.17;72.87
75471;HTU21D;64051;46.320;48.028;2023-02-11T04:32:22;-14.12;73.19
75471;HTU21D;64051;46.320;48.028;2023-02-11T04:34:48;-14.06;72.60
75471;HTU21D;64051;46.320;48.028;2023-02-11T04:37:14;-14.02;72.49
75471;HTU21D;64051;46.320;48.028;2023-02-11T04:39:40;-13.93;72.19
75471;HTU21D;64051;46.320;48.028;2023-02-11T04:42:06;-13.88;72.46
75471;HTU21D;64051;46.320;48.028;2023-02-11T04:44:35;-13.82;72.83
75471;HTU21D;64051;46.320;48.028;2023-02-11T04:47:01;-13.74;72.65
75471;HTU21D;64051;46.320;48.028;2023-02-11T04:49:27;-13.66;72.48
75471;HTU21D;64051;46.320;48.028;2023-02-11T04:51:53;-13.58;72.27
75471;HTU21D;64051;46.320;48.028;2023-02-11T04:54:19;-13.49;72.07
75471;HTU21D;64051;46.320;48.028;2023-02-11T04:56:45;-13.42;72.04
75471;HTU21D;64051;46.320;48.028;2023-02-11T04:59:11;-13.38;72.14
75471;HTU21D;64051;46.320;48.028;2023-02-11T05:01:38;-13.30;71.96
75471;HTU21D;64051;46.320;48.028;2023-02-11T05:04:04;-13.22;71.96
75471;HTU21D;64051;46.320;48.028;2023-02-11T05:06:33;-13.13;72.20
75471;HTU21D;64051;46.320;48.028;2023-02-11T05:08:59;-13.04;74.10
75471;HTU21D;64051;46.320;48.028;2023-02-11T05:11:25;-12.94;74.26
75471;HTU21D;64051;46.320;48.028;2023-02-11T05:13:51;-12.85;74.54
75471;HTU21D;64051;46.320;48.028;2023-02-11T05:16:18;-12.73;74.06
75471;HTU21D;64051;46.320;48.028;2023-02-11T05:18:44;-12.63;74.63
75471;HTU21D;64051;46.320;48.028;2023-02-11T05:21:16;-12.52;74.38
75471;HTU21D;64051;46.320;48.028;2023-02-11T05:23:46;-12.43;74.54
75471;HTU21D;64051;46.320;48.028;2023-02-11T05:26:12;-12.36;74.02
75471;HTU21D;64051;46.320;48.028;2023-02-11T05:28:38;-12.28;73.27
75471;HTU21D;64051;46.320;48.028;2023-02-11T05:31:04;-12.17;73.72
75471;HTU21D;64051;46.320;48.028;2023-02-11T05:33:30;-12.03;73.19
75471;HTU21D;64051;46.320;48.028;2023-02-11T05:35:58;-11.88;73.61
75471;HTU21D;64051;46.320;48.028;2023-02-11T05:38:28;-11.74;73.44
75471;HTU21D;64051;46.320;48.028;2023-02-11T05:40:54;-11.60;74.71
75471;HTU21D;64051;46.320;48.028;2023-02-11T05:43:20;-11.47;74.60
75471;HTU21D;64051;46.320;48.028;2023-02-11T05:45:46;-11.36;74.04
75471;HTU21D;64051;46.320;48.028;2023-02-11T05:48:12;-11.23;74.36
75471;HTU21D;64051;46.320;48.028;2023-02-11T05:50:38;-11.11;73.85
75471;HTU21D;64051;46.320;48.028;2023-02-11T05:53:07;-10.96;74.00
75471;HTU21D;64051;46.320;48.028;2023-02-11T05:55:33;-10.84;73.66
75471;HTU21D;64051;46.320;48.028;2023-02-11T05:57:59;-10.71;73.35
75471;HTU21D;64051;46.320;48.028;2023-02-11T06:00:25;-10.56;73.77
75471;HTU21D;64051;46.320;48.028;2023-02-11T06:03:00;-10.38;73.19
75471;HTU21D;64051;46.320;48.028;2023-02-11T06:05:31;-10.20;73.21
75471;HTU21D;64051;46.320;48.028;2023-02-11T06:07:58;-10.02;73.53
75471;HTU21D;64051;46.320;48.028;2023-02-11T06:10:24;-9.86;73.20
75471;HTU21D;64051;46.320;48.028;2023-02-11T06:12:50;-9.70;73.15
75471;HTU21D;64051;46.320;48.028;2023-02-11T06:15:16;-9.55;73.03
75471;HTU21D;64051;46.320;48.028;2023-02-11T06:17:45;-9.40;73.64
75471;HTU21D;64051;46.320;48.028;2023-02-11T06:20:11;-9.28;73.34
75471;HTU21D;64051;46.320;48.028;2023-02-11T06:22:37;-9.14;72.99
75471;HTU21D;64051;46.320;48.028;2023-02-11T06:25:06;-9.00;73.53
75471;HTU21D;64051;46.320;48.028;2023-02-11T06:27:32;-8.85;73.02
75471;HTU21D;64051;46.320;48.028;2023-02-11T06:30:04;-8.69;72.98
75471;HTU21D;64051;46.320;48.028;2023-02-11T06:32:31;-8.53;72.69
75471;HTU21D;64051;46.320;48.028;2023-02-11T06:34:57;-8.39;72.90
75471;HTU21D;64051;46.320;48.028;2023-02-11T06:37:23;-8.25;73.38
75471;HTU21D;64051;46.320;48.028;2023-02-11T06:39:49;-8.11;72.87
75471;HTU21D;64051;46.320;48.028;2023-02-11T06:42:15;-7.95;73.14
75471;HTU21D;64051;46.320;48.028;2023-02-11T06:44:41;-7.77;73.06
75471;HTU21D;64051;46.320;48.028;2023-02-11T06:47:07;-7.59;73.11
75471;HTU21D;64051;46.320;48.028;2023-02-11T06:49:36;-7.45;72.90
75471;HTU21D;64051;46.320;48.028;2023-02-11T06:52:08;-7.27;73.20
75471;HTU21D;64051;46.320;48.028;2023-02-11T06:54:33;-7.10;73.09
75471;HTU21D;64051;46.320;48.028;2023-02-11T06:56:59;-6.94;73.03
75471;HTU21D;64051;46.320;48.028;2023-02-11T06:59:25;-6.75;73.41
75471;HTU21D;64051;46.320;48.028;2023-02-11T07:01:51;-6.56;73.35
75471;HTU21D;64051;46.320;48.028;2023-02-11T07:04:17;-6.36;73.32
75471;HTU21D;64051;46.320;48.028;2023-02-11T07:06:47;-6.19;72.96
75471;HTU21D;64051;46.320;48.028;2023-02-11T07:09:16;-6.01;72.93
75471;HTU21D;64051;46.320;48.028;2023-02-11T07:11:44;-5.83;73.24
75471;HTU21D;64051;46.320;48.028;2023-02-11T07:14:16;-5.64;72.90
75471;HTU21D;64051;46.320;48.028;2023-02-11T07:16:42;-5.47;72.99
75471;HTU21D;64051;46.320;48.028;2023-02-11T07:19:11;-5.26;73.13
75471;HTU21D;64051;46.320;48.028;2023-02-11T07:21:40;-5.07;72.91
75471;HTU21D;64051;46.320;48.028;2023-02-11T07:24:07;-4.91;72.66
75471;HTU21D;64051;46.320;48.028;2023-02-11T07:26:37;-4.74;72.66
75471;HTU21D;64051;46.320;48.028;2023-02-11T07:29:06;-4.56;72.61
75471;HTU21D;64051;46.320;48.028;2023-02-11T07:31:31;-4.40;72.61
75471;HTU21D;64051;46.320;48.028;2023-02-11T07:34:00;-4.21;72.62
75471;HTU21D;64051;46.320;48.028;2023-02-11T07:36:30;-4.02;72.20
75471;HTU21D;64051;46.320;48.028;2023-02-11T07:38:57;-3.87;72.29
75471;HTU21D;64051;46.320;48.028;2023-02-11T07:41:26;-3.71;72.51
75471;HTU21D;64051;46.320;48.028;2023-02-11T07:43:52;-3.52;72.61
75471;HTU21D;64051;46.320;48.028;2023-02-11T07:46:25;-3.30;72.35
75471;HTU21D;64051;46.320;48.028;2023-02-11T07:48:52;-3.12;72.42
75471;HTU21D;64051;46.320;48.028;2023-02-11T07:51:23;-2.93;72.32
75471;HTU21D;64051;46.320;48.028;2023-02-11T07:53:49;-2.77;72.25
75471;HTU21D;64051;46.320;48.028;2023-02-11T07:56:20;-2.59;72.23
75471;HTU21D;64051;46.320;48.028;2023-02-11T07:58:46;-2.44;72.03
75471;HTU21D;64051;46.320;48.028;2023-02-11T08:01:22;-2.29;71.98
75471;HTU21D;64051;46.320;48.028;2023-02-11T08:03:55;-2.17;71.73
75471;HTU21D;64051;46.320;48.028;2023-02-11T08:06:24;-2.06;71.87
75471;HTU21D;64051;46.320;48.028;2023-02-11T08:08:53;-1.91;71.87
75471;HTU21D;64051;46.320;48.028;2023-02-11T08:11:24;-1.78;71.52
75471;HTU21D;64051;46.320;48.028;2023-02-11T08:13:51;-1.64;71.84
75471;HTU21D;64051;46.320;48.028;2023-02-11T08:16:28;-1.53;71.81
75471;HTU21D;64051;46.320;48.028;2023-02-11T08:19:12;-1.38;71.80
75471;HTU21D;64051;46.320;48.028;2023-02-11T08:21:39;-1.26;71.82
75471;HTU21D;64051;46.320;48.028;2023-02-11T08:24:11;-1.16;71.63
75471;HTU21D;64051;46.320;48.028;2023-02-11T08:26:40;-1.06;71.66
75471;HTU21D;64051;46.320;48.028;2023-02-11T08:29:12;-0.98;70.59
75471;HTU21D;64051;46.320;48.028;2023-02-11T08:31:42;-0.88;70.04
75471;HTU21D;64051;46.320;48.028;2023-02-11T08:34:09;-0.79;70.62
75471;HTU21D;64051;46.320;48.028;2023-02-11T08:36:40;-0.66;70.86
75471;HTU21D;64051;46.320;48.028;2023-02-11T08:39:11;-0.53;70.98
75471;HTU21D;64051;46.320;48.028;2023-02-11T08:41:38;-0.46;70.45
75471;HTU21D;64051;46.320;48.028;2023-02-11T08:44:04;-0.38;70.85
75471;HTU21D;64051;46.320;48.028;2023-02-11T08:46:33;-0.27;70.84
75471;HTU21D;64051;46.320;48.028;2023-02-11T08:49:02;-0.14;69.41
75471;HTU21D;64051;46.320;48.028;2023-02-11T08:51:34;-0.02;70.10
75471;HTU21D;64051;46.320;48.028;2023-02-11T08:54:03;0.06;70.44
75471;HTU21D;64051;46.320;48.028;2023-02-11T08:56:29;0.14;69.50
75471;HTU21D;64051;46.320;48.028;2023-02-11T08:58:57;0.27;69.68
75471;HTU21D;64051;46.320;48.028;2023-02-11T09:01:28;0.40;69.13
75471;HTU21D;64051;46.320;48.028;2023-02-11T09:03:56;0.48;70.00
75471;HTU21D;64051;46.320;48.028;2023-02-11T09:06:23;0.53;69.61
75471;HTU21D;64051;46.320;48.028;2023-02-11T09:08:52;0.57;68.75
75471;HTU21D;64051;46.320;48.028;2023-02-11T09:11:28;0.54;68.35
75471;HTU21D;64051;46.320;48.028;2023-02-11T09:13:55;0.53;68.65
75471;HTU21D;64051;46.320;48.028;2023-02-11T09:16:26;0.61;68.22
75471;HTU21D;64051;46.320;48.028;2023-02-11T09:19:04;0.74;69.66
75471;HTU21D;64051;46.320;48.028;2023-02-11T09:21:30;0.87;70.11
75471;HTU21D;64051;46.320;48.028;2023-02-11T09:23:56;0.98;69.85
75471;HTU21D;64051;46.320;48.028;2023-02-11T09:26:27;1.14;69.36
75471;HTU21D;64051;46.320;48.028;2023-02-11T09:28:54;1.29;69.46
75471;HTU21D;64051;46.320;48.028;2023-02-11T09:31:24;1.46;68.75
75471;HTU21D;64051;46.320;48.028;2023-02-11T09:33:53;1.58;68.97
75471;HTU21D;64051;46.320;48.028;2023-02-11T09:36:25;1.72;68.76
75471;HTU21D;64051;46.320;48.028;2023-02-11T09:38:54;1.83;66.41
75471;HTU21D;64051;46.320;48.028;2023-02-11T09:44:27;2.01;68.26
75471;HTU21D;64051;46.320;48.028;2023-02-11T09:47:04;2.15;67.65
75471;HTU21D;64051;46.320;48.028;2023-02-11T09:50:17;2.19;67.50
75471;HTU21D;64051;46.320;48.028;2023-02-11T09:53:03;2.19;66.19
75471;HTU21D;64051;46.320;48.028;2023-02-11T09:55:38;2.20;67.23
75471;HTU21D;64051;46.320;48.028;2023-02-11T09:58:15;2.26;67.01
75471;HTU21D;64051;46.320;48.028;2023-02-11T10:06:53;2.42;65.32
75471;HTU21D;64051;46.320;48.028;2023-02-11T10:09:26;2.46;66.68
75471;HTU21D;64051;46.320;48.028;2023-02-11T10:12:10;2.49;66.81
75471;HTU21D;64051;46.320;48.028;2023-02-11T10:25:35;2.75;66.07
75471;HTU21D;64051;46.320;48.028;2023-02-11T10:28:19;2.80;61.38
75471;HTU21D;64051;46.320;48.028;2023-02-11T10:30:56;2.87;64.98
75471;HTU21D;64051;46.320;48.028;2023-02-11T10:33:57;3.00;65.43
75471;HTU21D;64051;46.320;48.028;2023-02-11T10:36:30;3.12;65.40
75471;HTU21D;64051;46.320;48.028;2023-02-11T10:39:14;3.24;65.33
75471;HTU21D;64051;46.320;48.028;2023-02-11T10:41:44;3.33;65.24
75471;HTU21D;64051;46.320;48.028;2023-02-11T10:46:56;3.40;66.21
75471;HTU21D;64051;46.320;48.028;2023-02-11T10:49:42;3.46;64.79
75471;HTU21D;64051;46.320;48.028;2023-02-11T10:52:21;3.48;65.28
75471;HTU21D;64051;46.320;48.028;2023-02-11T10:55:03;3.45;65.90
75471;HTU21D;64051;46.320;48.028;2023-02-11T10:57:41;3.43;65.53
75471;HTU21D;64051;46.320;48.028;2023-02-11T11:00:34;3.44;65.08
75471;HTU21D;64051;46.320;48.028;2023-02-11T11:03:17;3.43;65.59
75471;HTU21D;64051;46.320;48.028;2023-02-11T11:05:56;3.44;65.64
75471;HTU21D;64051;46.320;48.028;2023-02-11T11:11:09;3.48;65.27
75471;HTU21D;64051;46.320;48.028;2023-02-11T11:13:40;3.47;65.43
75471;HTU21D;64051;46.320;48.028;2023-02-11T11:16:18;3.48;65.56
75471;HTU21D;64051;46.320;48.028;2023-02-11T11:18:50;3.49;64.98
75471;HTU21D;64051;46.320;48.028;2023-02-11T11:21:43;3.56;65.15
75471;HTU21D;64051;46.320;48.028;2023-02-11T11:24:27;3.56;62.85
75471;HTU21D;64051;46.320;48.028;2023-02-11T11:27:00;3.52;64.69
75471;HTU21D;64051;46.320;48.028;2023-02-11T11:29:41;3.49;64.95
75471;HTU21D;64051;46.320;48.028;2023-02-11T11:34:52;3.47;64.80
75471;HTU21D;64051;46.320;48.028;2023-02-11T11:37:36;3.43;64.88
75471;HTU21D;64051;46.320;48.028;2023-02-11T11:42:45;3.36;64.82
75471;HTU21D;64051;46.320;48.028;2023-02-11T11:45:21;3.32;65.17
75471;HTU21D;64051;46.320;48.028;2023-02-11T11:48:21;3.27;64.18
75471;HTU21D;64051;46.320;48.028;2023-02-11T11:51:01;3.20;64.51
75471;HTU21D;64051;46.320;48.028;2023-02-11T11:53:55;3.17;65.06
75471;HTU21D;64051;46.320;48.028;2023-02-11T11:56:29;3.18;65.42
75471;HTU21D;64051;46.320;48.028;2023-02-11T11:58:59;3.18;65.59
75471;HTU21D;64051;46.320;48.028;2023-02-11T12:01:53;3.18;65.03
75471;HTU21D;64051;46.320;48.028;2023-02-11T12:04:40;3.20;65.17
75471;HTU21D;64051;46.320;48.028;2023-02-11T12:08:13;3.20;64.67
75471;HTU21D;64051;46.320;48.028;2023-02-11T12:10:53;3.19;65.19
75471;HTU21D;64051;46.320;48.028;2023-02-11T12:13:52;3.15;65.22
75471;HTU21D;64051;46.320;48.028;2023-02-11T12:28:11;2.93;64.72
75471;HTU21D;64051;46.320;48.028;2023-02-11T12:41:44;2.74;65.17
75471;HTU21D;64051;46.320;48.028;2023-02-11T12:56:30;2.55;65.24
75471;HTU21D;64051;46.320;48.028;2023-02-11T12:58:59;2.55;65.54
75471;HTU21D;64051;46.320;48.028;2023-02-11T13:01:28;2.54;65.22
75471;HTU21D;64051;46.320;48.028;2023-02-11T13:06:40;2.44;65.28
75471;HTU21D;64051;46.320;48.028;2023-02-11T13:09:33;2.38;65.37
75471;HTU21D;64051;46.320;48.028;2023-02-11T13:12:05;2.35;65.87
75471;HTU21D;64051;46.320;48.028;2023-02-11T13:14:55;2.29;65.82
75471;HTU21D;64051;46.320;48.028;2023-02-11T13:17:35;2.22;65.75
75471;HTU21D;64051;46.320;48.028;2023-02-11T13:20:17;2.15;65.79
75471;HTU21D;64051;46.320;48.028;2023-02-11T13:22:53;2.05;65.92
75471;HTU21D;64051;46.320;48.028;2023-02-11T13:28:24;1.81;65.97
75471;HTU21D;64051;46.320;48.028;2023-02-11T13:30:59;1.70;66.00
75471;HTU21D;64051;46.320;48.028;2023-02-11T13:33:36;1.58;65.94
75471;HTU21D;64051;46.320;48.028;2023-02-11T13:38:31;1.37;66.12
75471;HTU21D;64051;46.320;48.028;2023-02-11T13:43:43;1.11;66.17
75471;HTU21D;64051;46.320;48.028;2023-02-11T13:46:21;0.97;66.23
75471;HTU21D;64051;46.320;48.028;2023-02-11T13:48:52;0.84;66.30
75471;HTU21D;64051;46.320;48.028;2023-02-11T13:51:41;0.72;66.40
75471;HTU21D;64051;46.320;48.028;2023-02-11T13:54:29;0.59;66.42
75471;HTU21D;64051;46.320;48.028;2023-02-11T13:57:20;0.44;66.56
75471;HTU21D;64051;46.320;48.028;2023-02-11T13:59:55;0.31;66.77
75471;HTU21D;64051;46.320;48.028;2023-02-11T14:02:31;0.20;66.74
75471;HTU21D;64051;46.320;48.028;2023-02-11T14:05:31;0.07;66.75
75471;HTU21D;64051;46.320;48.028;2023-02-11T14:08:18;-0.08;67.05
75471;HTU21D;64051;46.320;48.028;2023-02-11T14:19:42;-0.51;67.30
75471;HTU21D;64051;46.320;48.028;2023-02-11T14:22:21;-0.59;67.37
75471;HTU21D;64051;46.320;48.028;2023-02-11T14:25:11;-0.67;67.38
75471;HTU21D;64051;46.320;48.028;2023-02-11T14:28:20;-0.74;67.43
75471;HTU21D;64051;46.320;48.028;2023-02-11T14:31:20;-0.84;67.48
75471;HTU21D;64051;46.320;48.028;2023-02-11T14:34:03;-0.96;67.72
75471;HTU21D;64051;46.320;48.028;2023-02-11T14:36:44;-1.03;67.62
75471;HTU21D;64051;46.320;48.028;2023-02-11T14:42:36;-1.25;67.79
75471;HTU21D;64051;46.320;48.028;2023-02-11T14:45:05;-1.32;67.88
75471;HTU21D;64051;46.320;48.028;2023-02-11T14:47:45;-1.35;67.86
75471;HTU21D;64051;46.320;48.028;2023-02-11T14:50:38;-1.44;67.89
75471;HTU21D;64051;46.320;48.028;2023-02-11T14:53:08;-1.50;67.95
75471;HTU21D;64051;46.320;48.028;2023-02-11T14:55:47;-1.54;68.01
75471;HTU21D;64051;46.320;48.028;2023-02-11T14:58:28;-1.60;68.01
75471;HTU21D;64051;46.320;48.028;2023-02-11T15:01:03;-1.64;68.26
75471;HTU21D;64051;46.320;48.028;2023-02-11T15:03:42;-1.70;68.18
75471;HTU21D;64051;46.320;48.028;2023-02-11T15:06:24;-1.73;68.21
75471;HTU21D;64051;46.320;48.028;2023-02-11T15:11:46;-1.80;68.27
75471;HTU21D;64051;46.320;48.028;2023-02-11T15:14:33;-1.83;68.69
75471;HTU21D;64051;46.320;48.028;2023-02-11T15:17:07;-1.86;68.36
75471;HTU21D;64051;46.320;48.028;2023-02-11T15:19:38;-1.88;68.55
75471;HTU21D;64051;46.320;48.028;2023-02-11T15:22:17;-1.89;68.46
75471;HTU21D;64051;46.320;48.028;2023-02-11T15:25:15;-1.92;68.70
75471;HTU21D;64051;46.320;48.028;2023-02-11T15:27:48;-1.92;68.77
75471;HTU21D;64051;46.320;48.028;2023-02-11T15:32:50;-1.92;69.03
75471;HTU21D;64051;46.320;48.028;2023-02-11T15:35:21;-1.91;68.87
75471;HTU21D;64051;46.320;48.028;2023-02-11T15:37:51;-1.97;68.68
75471;HTU21D;64051;46.320;48.028;2023-02-11T15:40:25;-2.00;68.80
75471;HTU21D;64051;46.320;48.028;2023-02-11T15:42:59;-2.03;68.58
75471;HTU21D;64051;46.320;48.028;2023-02-11T15:48:36;-2.16;69.03
75471;HTU21D;64051;46.320;48.028;2023-02-11T15:51:32;-2.19;69.58
75471;HTU21D;64051;46.320;48.028;2023-02-11T15:54:02;-2.19;69.38
75471;HTU21D;64051;46.320;48.028;2023-02-11T15:56:39;-2.19;69.47
75471;HTU21D;64051;46.320;48.028;2023-02-11T16:01:46;-2.18;68.94
75471;HTU21D;64051;46.320;48.028;2023-02-11T16:04:22;-2.20;69.01
75471;HTU21D;64051;46.320;48.028;2023-02-11T16:06:55;-2.22;69.01
75471;HTU21D;64051;46.320;48.028;2023-02-11T16:09:33;-2.22;68.93
75471;HTU21D;64051;46.320;48.028;2023-02-11T16:12:02;-2.27;68.94
75471;HTU21D;64051;46.320;48.028;2023-02-11T16:14:35;-2.31;69.22
75471;HTU21D;64051;46.320;48.028;2023-02-11T16:17:06;-2.34;69.45
75471;HTU21D;64051;46.320;48.028;2023-02-11T16:19:42;-2.38;69.10
75471;HTU21D;64051;46.320;48.028;2023-02-11T16:22:29;-2.44;68.89
75471;HTU21D;64051;46.320;48.028;2023-02-11T16:25:00;-2.49;68.88
75471;HTU21D;64051;46.320;48.028;2023-02-11T16:27:39;-2.52;69.25
75471;HTU21D;64051;46.320;48.028;2023-02-11T16:30:28;-2.59;69.07
75471;HTU21D;64051;46.320;48.028;2023-02-11T16:32:57;-2.63;68.97
75471;HTU21D;64051;46.320;48.028;2023-02-11T16:35:32;-2.66;69.45
75471;HTU21D;64051;46.320;48.028;2023-02-11T16:38:15;-2.69;69.87
75471;HTU21D;64051;46.320;48.028;2023-02-11T16:40:54;-2.71;69.26
75471;HTU21D;64051;46.320;48.028;2023-02-11T16:43:38;-2.72;69.33
75471;HTU21D;64051;46.320;48.028;2023-02-11T16:46:12;-2.76;69.42
75471;HTU21D;64051;46.320;48.028;2023-02-11T16:48:45;-2.78;69.73
75471;HTU21D;64051;46.320;48.028;2023-02-11T16:51:21;-2.80;69.42
75471;HTU21D;64051;46.320;48.028;2023-02-11T16:53:47;-2.81;69.24
75471;HTU21D;64051;46.320;48.028;2023-02-11T16:56:14;-2.84;69.20
75471;HTU21D;64051;46.320;48.028;2023-02-11T16:58:42;-2.89;69.93
75471;HTU21D;64051;46.320;48.028;2023-02-11T17:01:08;-2.92;69.33
75471;HTU21D;64051;46.320;48.028;2023-02-11T17:03:44;-2.95;69.29
75471;HTU21D;64051;46.320;48.028;2023-02-11T17:06:12;-3.00;69.43
75471;HTU21D;64051;46.320;48.028;2023-02-11T17:08:41;-3.02;69.46
75471;HTU21D;64051;46.320;48.028;2023-02-11T17:11:12;-3.04;69.91
75471;HTU21D;64051;46.320;48.028;2023-02-11T17:13:42;-3.05;69.68
75471;HTU21D;64051;46.320;48.028;2023-02-11T17:16:21;-3.03;69.61
75471;HTU21D;64051;46.320;48.028;2023-02-11T17:18:51;-3.04;69.91
75471;HTU21D;64051;46.320;48.028;2023-02-11T17:21:20;-3.03;70.03
75471;HTU21D;64051;46.320;48.028;2023-02-11T17:23:53;-3.01;70.12
75471;HTU21D;64051;46.320;48.028;2023-02-11T17:26:20;-2.98;70.60
75471;HTU21D;64051;46.320;48.028;2023-02-11T17:28:52;-2.95;70.49
75471;HTU21D;64051;46.320;48.028;2023-02-11T17:31:27;-2.94;70.52
75471;HTU21D;64051;46.320;48.028;2023-02-11T17:33:53;-2.91;70.24
75471;HTU21D;64051;46.320;48.028;2023-02-11T17:36:20;-2.91;71.85
75471;HTU21D;64051;46.320;48.028;2023-02-11T17:38:49;-2.90;70.29
75471;HTU21D;64051;46.320;48.028;2023-02-11T17:41:16;-2.90;70.80